sensor_id;sensor_type;location;lat;lon;timestamp;temperature;humidity
23751;DHT22;12055;52.098;13.176;2022-08-06T00:01:48;16.30;99.90
23751;DHT22;12055;52.098;13.176;2022-08-06T00:04:13;16.20;99.90
23751;DHT22;12055;52.098;13.176;2022-08-06T00:06:39;16.10;99.90
23751;DHT22;12055;52.098;13.176;2022-08-06T00:09:04;16.00;99.90
23751;DHT22;12055;52.098;13.176;2022-08-06T00:11:30;15.90;99.90
23751;DHT22;12055;52.098;13.176;2022-08-06T00:13:55;15.90;99.90
23751;DHT22;12055;52.098;13.176;2022-08-06T00:16:21;15.80;99.90
23751;DHT22;12055;52.098;13.176;2022-08-06T00:18:46;15.80;99.90
23751;DHT22;12055;52.098;13.176;2022-08-06T00:21:11;15.80;99.90
23751;DHT22;12055;52.098;13.176;2022-08-06T00:23:37;15.80;99.90
23751;DHT22;12055;52.098;13.176;2022-08-06T00:26:03;15.80;99.90
23751;DHT22;12055;52.098;13.176;2022-08-06T00:28:28;15.90;99.90
23751;DHT22;12055;52.098;13.176;2022-08-06T00:30:53;16.00;99.90
23751;DHT22;12055;52.098;13.176;2022-08-06T00:33:19;15.90;99.90
23751;DHT22;12055;52.098;13.176;2022-08-06T00:35:44;15.80;99.90
23751;DHT22;12055;52.098;13.176;2022-08-06T00:38:10;15.80;99.90
23751;DHT22;12055;52.098;13.176;2022-08-06T00:40:36;15.70;99.90
23751;DHT22;12055;52.098;13.176;2022-08-06T00:43:03;15.70;99.90
23751;DHT22;12055;52.098;13.176;2022-08-06T00:45:30;15.70;99.90
23751;DHT22;12055;52.098;13.176;2022-08-06T00:47:55;15.70;99.90
23751;DHT22;12055;52.098;13.176;2022-08-06T00:50:21;15.70;99.90
23751;DHT22;12055;52.098;13.176;2022-08-06T00:52:47;15.60;99.90
23751;DHT22;12055;52.098;13.176;2022-08-06T00:55:12;15.60;99.90
23751;DHT22;12055;52.098;13.176;2022-08-06T00:57:38;15.50;99.90
23751;DHT22;12055;52.098;13.176;2022-08-06T01:00:05;15.50;99.90
23751;DHT22;12055;52.098;13.176;2022-08-06T01:02:31;15.50;99.90
23751;DHT22;12055;52.098;13.176;2022-08-06T01:04:57;15.40;99.90
23751;DHT22;12055;52.098;13.176;2022-08-06T01:07:22;15.30;99.90
23751;DHT22;12055;52.098;13.176;2022-08-06T01:09:48;15.30;99.90
23751;DHT22;12055;52.098;13.176;2022-08-06T01:12:14;15.20;99.90
23751;DHT22;12055;52.098;13.176;2022-08-06T01:14:40;15.10;99.90
23751;DHT22;12055;52.098;13.176;2022-08-06T01:17:13;15.10;99.90
23751;DHT22;12055;52.098;13.176;2022-08-06T01:20:03;15.10;99.90
23751;DHT22;12055;52.098;13.176;2022-08-06T01:25:32;14.90;99.90
23751;DHT22;12055;52.098;13.176;2022-08-06T01:28:07;14.80;99.90
23751;DHT22;12055;52.098;13.176;2022-08-06T01:30:40;14.80;99.90
23751;DHT22;12055;52.098;13.176;2022-08-06T01:33:11;14.80;99.90
23751;DHT22;12055;52.098;13.176;2022-08-06T01:35:41;14.80;99.90
23751;DHT22;12055;52.098;13.176;2022-08-06T01:38:22;14.70;99.90
23751;DHT22;12055;52.098;13.176;2022-08-06T01:40:50;14.60;99.90
23751;DHT22;12055;52.098;13.176;2022-08-06T01:43:19;14.50;99.90
23751;DHT22;12055;52.098;13.176;2022-08-06T01:45:46;14.50;99.90
23751;DHT22;12055;52.098;13.176;2022-08-06T01:48:16;14.40;99.90
23751;DHT22;12055;52.098;13.176;2022-08-06T01:50:45;14.40;99.90
23751;DHT22;12055;52.098;13.176;2022-08-06T01:53:14;14.40;99.90
23751;DHT22;12055;52.098;13.176;2022-08-06T01:55:44;14.40;99.90
23751;DHT22;12055;52.098;13.176;2022-08-06T01:58:11;14.30;99.90
23751;DHT22;12055;52.098;13.176;2022-08-06T02:00:40;14.20;99.90
23751;DHT22;12055;52.098;13.176;2022-08-06T02:03:22;14.20;99.90
23751;DHT22;12055;52.098;13.176;2022-08-06T02:05:49;14.10;99.90
23751;DHT22;12055;52.098;13.176;2022-08-06T02:08:17;14.10;99.90
23751;DHT22;12055;52.098;13.176;2022-08-06T02:10:44;14.00;99.90
23751;DHT22;12055;52.098;13.176;2022-08-06T02:13:10;13.90;99.90
23751;DHT22;12055;52.098;13.176;2022-08-06T02:15:38;13.80;99.90
23751;DHT22;12055;52.098;13.176;2022-08-06T02:18:06;13.70;99.90
23751;DHT22;12055;52.098;13.176;2022-08-06T02:20:41;13.70;99.90
23751;DHT22;12055;52.098;13.176;2022-08-06T02:23:13;13.70;99.90
23751;DHT22;12055;52.098;13.176;2022-08-06T02:25:40;13.70;99.90
23751;DHT22;12055;52.098;13.176;2022-08-06T02:28:09;13.60;99.90
23751;DHT22;12055;52.098;13.176;2022-08-06T02:30:37;13.70;99.90
23751;DHT22;12055;52.098;13.176;2022-08-06T02:33:04;13.60;99.90
23751;DHT22;12055;52.098;13.176;2022-08-06T02:35:30;13.60;99.90
23751;DHT22;12055;52.098;13.176;2022-08-06T02:38:10;13.60;99.90
23751;DHT22;12055;52.098;13.176;2022-08-06T02:40:42;13.60;99.90
23751;DHT22;12055;52.098;13.176;2022-08-06T02:43:14;13.60;99.90
23751;DHT22;12055;52.098;13.176;2022-08-06T02:45:55;13.60;99.90
23751;DHT22;12055;52.098;13.176;2022-08-06T02:48:30;13.60;99.90
23751;DHT22;12055;52.098;13.176;2022-08-06T02:51:03;13.60;99.90
23751;DHT22;12055;52.098;13.176;2022-08-06T02:53:36;13.50;99.90
23751;DHT22;12055;52.098;13.176;2022-08-06T02:56:08;13.40;99.90
23751;DHT22;12055;52.098;13.176;2022-08-06T02:58:53;13.40;99.90
23751;DHT22;12055;52.098;13.176;2022-08-06T03:01:22;13.30;99.90
23751;DHT22;12055;52.098;13.176;2022-08-06T03:03:52;13.30;99.90
23751;DHT22;12055;52.098;13.176;2022-08-06T03:06:20;13.20;99.90
23751;DHT22;12055;52.098;13.176;2022-08-06T03:08:46;13.20;99.90
23751;DHT22;12055;52.098;13.176;2022-08-06T03:11:12;13.20;99.90
23751;DHT22;12055;52.098;13.176;2022-08-06T03:13:39;13.20;99.90
23751;DHT22;12055;52.098;13.176;2022-08-06T03:16:06;13.20;99.90
23751;DHT22;12055;52.098;13.176;2022-08-06T03:18:33;13.10;99.90
23751;DHT22;12055;52.098;13.176;2022-08-06T03:21:00;13.10;99.90
23751;DHT22;12055;52.098;13.176;2022-08-06T03:23:28;13.00;99.90
23751;DHT22;12055;52.098;13.176;2022-08-06T03:25:55;13.00;99.90
23751;DHT22;12055;52.098;13.176;2022-08-06T03:28:22;12.90;99.90
23751;DHT22;12055;52.098;13.176;2022-08-06T03:30:50;12.90;99.90
23751;DHT22;12055;52.098;13.176;2022-08-06T03:33:16;12.90;99.90
23751;DHT22;12055;52.098;13.176;2022-08-06T03:35:43;12.80;99.90
23751;DHT22;12055;52.098;13.176;2022-08-06T03:38:11;12.80;99.90
23751;DHT22;12055;52.098;13.176;2022-08-06T03:40:39;12.70;99.90
23751;DHT22;12055;52.098;13.176;2022-08-06T03:43:07;12.60;99.90
23751;DHT22;12055;52.098;13.176;2022-08-06T03:45:37;12.50;99.90
23751;DHT22;12055;52.098;13.176;2022-08-06T03:48:04;12.40;99.90
23751;DHT22;12055;52.098;13.176;2022-08-06T03:50:36;12.40;99.90
23751;DHT22;12055;52.098;13.176;2022-08-06T03:53:08;12.40;99.90
23751;DHT22;12055;52.098;13.176;2022-08-06T03:55:37;12.30;99.90
23751;DHT22;12055;52.098;13.176;2022-08-06T03:58:05;12.30;99.90
23751;DHT22;12055;52.098;13.176;2022-08-06T04:00:36;12.30;99.90
23751;DHT22;12055;52.098;13.176;2022-08-06T04:03:03;12.30;99.90
23751;DHT22;12055;52.098;13.176;2022-08-06T04:05:32;12.30;99.90
23751;DHT22;12055;52.098;13.176;2022-08-06T04:11:25;12.30;99.90
23751;DHT22;12055;52.098;13.176;2022-08-06T04:13:51;12.30;99.90
23751;DHT22;12055;52.098;13.176;2022-08-06T04:16:17;12.40;99.90
23751;DHT22;12055;52.098;13.176;2022-08-06T04:18:44;12.40;99.90
23751;DHT22;12055;52.098;13.176;2022-08-06T04:21:19;12.50;99.90
23751;DHT22;12055;52.098;13.176;2022-08-06T04:23:46;12.60;99.90
23751;DHT22;12055;52.098;13.176;2022-08-06T04:26:13;12.70;99.90
23751;DHT22;12055;52.098;13.176;2022-08-06T04:28:42;12.70;99.90
23751;DHT22;12055;52.098;13.176;2022-08-06T04:31:09;12.80;99.90
23751;DHT22;12055;52.098;13.176;2022-08-06T04:33:36;12.80;99.90
23751;DHT22;12055;52.098;13.176;2022-08-06T04:36:04;12.80;99.90
23751;DHT22;12055;52.098;13.176;2022-08-06T04:38:33;12.90;99.90
23751;DHT22;12055;52.098;13.176;2022-08-06T04:40:59;13.00;99.90
23751;DHT22;12055;52.098;13.176;2022-08-06T04:43:25;13.00;99.90
23751;DHT22;12055;52.098;13.176;2022-08-06T04:45:52;13.10;99.90
23751;DHT22;12055;52.098;13.176;2022-08-06T04:48:18;13.10;99.90
23751;DHT22;12055;52.098;13.176;2022-08-06T04:50:44;13.20;99.90
23751;DHT22;12055;52.098;13.176;2022-08-06T04:53:15;13.20;99.90
23751;DHT22;12055;52.098;13.176;2022-08-06T04:55:42;13.30;99.90
23751;DHT22;12055;52.098;13.176;2022-08-06T04:58:10;13.30;99.90
23751;DHT22;12055;52.098;13.176;2022-08-06T05:00:41;13.40;99.90
23751;DHT22;12055;52.098;13.176;2022-08-06T05:03:07;13.40;99.90
23751;DHT22;12055;52.098;13.176;2022-08-06T05:05:46;13.40;99.90
23751;DHT22;12055;52.098;13.176;2022-08-06T05:08:13;13.50;99.90
23751;DHT22;12055;52.098;13.176;2022-08-06T05:11:00;13.60;99.90
23751;DHT22;12055;52.098;13.176;2022-08-06T05:13:29;13.70;99.90
23751;DHT22;12055;52.098;13.176;2022-08-06T05:15:57;14.00;99.90
23751;DHT22;12055;52.098;13.176;2022-08-06T05:18:30;14.50;99.90
23751;DHT22;12055;52.098;13.176;2022-08-06T05:21:00;14.70;99.90
23751;DHT22;12055;52.098;13.176;2022-08-06T05:23:45;14.70;99.90
23751;DHT22;12055;52.098;13.176;2022-08-06T05:26:11;14.70;99.90
23751;DHT22;12055;52.098;13.176;2022-08-06T05:28:41;14.70;99.90
23751;DHT22;12055;52.098;13.176;2022-08-06T05:31:06;14.70;99.90
23751;DHT22;12055;52.098;13.176;2022-08-06T05:33:33;14.60;99.90
23751;DHT22;12055;52.098;13.176;2022-08-06T05:36:02;14.80;99.90
23751;DHT22;12055;52.098;13.176;2022-08-06T05:38:29;15.10;99.90
23751;DHT22;12055;52.098;13.176;2022-08-06T05:40:55;15.10;99.90
23751;DHT22;12055;52.098;13.176;2022-08-06T05:43:21;15.10;99.90
23751;DHT22;12055;52.098;13.176;2022-08-06T05:45:49;15.10;99.90
23751;DHT22;12055;52.098;13.176;2022-08-06T05:48:17;15.20;99.90
23751;DHT22;12055;52.098;13.176;2022-08-06T05:50:54;15.20;99.90
23751;DHT22;12055;52.098;13.176;2022-08-06T05:53:47;15.10;99.90
23751;DHT22;12055;52.098;13.176;2022-08-06T05:56:17;15.10;99.90
23751;DHT22;12055;52.098;13.176;2022-08-06T05:59:06;15.60;99.90
23751;DHT22;12055;52.098;13.176;2022-08-06T06:01:32;16.30;99.90
23751;DHT22;12055;52.098;13.176;2022-08-06T06:03:58;16.60;99.90
23751;DHT22;12055;52.098;13.176;2022-08-06T06:06:24;16.80;99.90
23751;DHT22;12055;52.098;13.176;2022-08-06T06:08:50;17.30;99.90
23751;DHT22;12055;52.098;13.176;2022-08-06T06:11:17;17.40;99.90
23751;DHT22;12055;52.098;13.176;2022-08-06T06:13:43;17.70;99.90
23751;DHT22;12055;52.098;13.176;2022-08-06T06:21:56;19.10;99.90
23751;DHT22;12055;52.098;13.176;2022-08-06T06:24:31;19.20;99.90
23751;DHT22;12055;52.098;13.176;2022-08-06T06:29:44;19.60;99.90
23751;DHT22;12055;52.098;13.176;2022-08-06T06:32:37;19.50;99.90
23751;DHT22;12055;52.098;13.176;2022-08-06T06:35:15;19.30;99.90
23751;DHT22;12055;52.098;13.176;2022-08-06T06:37:43;19.60;99.90
23751;DHT22;12055;52.098;13.176;2022-08-06T06:42:43;19.80;99.90
23751;DHT22;12055;52.098;13.176;2022-08-06T06:45:17;19.70;99.90
23751;DHT22;12055;52.098;13.176;2022-08-06T06:47:52;20.10;99.90
23751;DHT22;12055;52.098;13.176;2022-08-06T06:50:27;20.50;99.90
23751;DHT22;12055;52.098;13.176;2022-08-06T06:52:53;21.00;99.90
23751;DHT22;12055;52.098;13.176;2022-08-06T06:55:32;21.20;99.90
23751;DHT22;12055;52.098;13.176;2022-08-06T06:58:06;21.60;99.90
23751;DHT22;12055;52.098;13.176;2022-08-06T07:00:33;21.20;99.90
23751;DHT22;12055;52.098;13.176;2022-08-06T07:02:59;20.90;99.90
23751;DHT22;12055;52.098;13.176;2022-08-06T07:05:28;21.20;99.90
23751;DHT22;12055;52.098;13.176;2022-08-06T07:07:54;21.20;99.90
23751;DHT22;12055;52.098;13.176;2022-08-06T07:10:22;21.10;99.90
23751;DHT22;12055;52.098;13.176;2022-08-06T07:12:49;21.10;99.90
23751;DHT22;12055;52.098;13.176;2022-08-06T07:15:16;21.60;99.90
23751;DHT22;12055;52.098;13.176;2022-08-06T07:17:44;21.50;99.90
23751;DHT22;12055;52.098;13.176;2022-08-06T07:20:13;21.40;99.90
23751;DHT22;12055;52.098;13.176;2022-08-06T07:22:41;21.50;99.90
23751;DHT22;12055;52.098;13.176;2022-08-06T07:25:11;21.70;99.90
23751;DHT22;12055;52.098;13.176;2022-08-06T07:27:42;21.70;99.90
23751;DHT22;12055;52.098;13.176;2022-08-06T07:30:10;22.00;99.90
23751;DHT22;12055;52.098;13.176;2022-08-06T07:32:37;22.30;99.90
23751;DHT22;12055;52.098;13.176;2022-08-06T07:35:04;22.20;99.90
23751;DHT22;12055;52.098;13.176;2022-08-06T07:37:30;22.00;99.90
23751;DHT22;12055;52.098;13.176;2022-08-06T07:39:57;22.00;99.90
23751;DHT22;12055;52.098;13.176;2022-08-06T07:42:25;22.50;99.90
23751;DHT22;12055;52.098;13.176;2022-08-06T07:44:55;22.90;99.90
23751;DHT22;12055;52.098;13.176;2022-08-06T07:47:29;22.50;99.90
23751;DHT22;12055;52.098;13.176;2022-08-06T07:49:57;22.40;99.90
23751;DHT22;12055;52.098;13.176;2022-08-06T07:52:24;22.20;99.90
23751;DHT22;12055;52.098;13.176;2022-08-06T07:54:51;22.70;99.90
23751;DHT22;12055;52.098;13.176;2022-08-06T07:57:17;23.10;99.90
23751;DHT22;12055;52.098;13.176;2022-08-06T07:59:44;23.00;99.90
23751;DHT22;12055;52.098;13.176;2022-08-06T08:02:10;22.80;99.90
23751;DHT22;12055;52.098;13.176;2022-08-06T08:04:36;22.80;99.90
23751;DHT22;12055;52.098;13.176;2022-08-06T08:07:22;23.40;99.90
23751;DHT22;12055;52.098;13.176;2022-08-06T08:09:48;23.20;99.90
23751;DHT22;12055;52.098;13.176;2022-08-06T08:12:16;22.80;99.90
23751;DHT22;12055;52.098;13.176;2022-08-06T08:14:46;22.90;99.90
23751;DHT22;12055;52.098;13.176;2022-08-06T08:17:12;22.90;99.90
23751;DHT22;12055;52.098;13.176;2022-08-06T08:19:37;22.60;99.90
23751;DHT22;12055;52.098;13.176;2022-08-06T08:22:10;22.70;99.90
23751;DHT22;12055;52.098;13.176;2022-08-06T08:24:38;23.10;99.90
23751;DHT22;12055;52.098;13.176;2022-08-06T08:27:04;22.60;99.90
23751;DHT22;12055;52.098;13.176;2022-08-06T08:29:33;22.70;99.90
23751;DHT22;12055;52.098;13.176;2022-08-06T08:31:59;23.00;99.90
23751;DHT22;12055;52.098;13.176;2022-08-06T08:34:25;23.20;99.90
23751;DHT22;12055;52.098;13.176;2022-08-06T08:36:50;23.00;99.90
23751;DHT22;12055;52.098;13.176;2022-08-06T08:39:16;22.90;99.90
23751;DHT22;12055;52.098;13.176;2022-08-06T08:42:18;23.00;99.90
23751;DHT22;12055;52.098;13.176;2022-08-06T08:44:46;22.90;99.90
23751;DHT22;12055;52.098;13.176;2022-08-06T08:47:13;22.90;99.90
23751;DHT22;12055;52.098;13.176;2022-08-06T08:49:41;22.80;99.90
23751;DHT22;12055;52.098;13.176;2022-08-06T08:52:18;22.60;99.90
23751;DHT22;12055;52.098;13.176;2022-08-06T08:54:51;22.70;99.90
23751;DHT22;12055;52.098;13.176;2022-08-06T08:57:18;22.50;99.90
23751;DHT22;12055;52.098;13.176;2022-08-06T08:59:44;22.30;99.90
23751;DHT22;12055;52.098;13.176;2022-08-06T09:02:12;22.20;99.90
23751;DHT22;12055;52.098;13.176;2022-08-06T09:04:39;22.30;99.90
23751;DHT22;12055;52.098;13.176;2022-08-06T09:07:05;22.30;99.90
23751;DHT22;12055;52.098;13.176;2022-08-06T09:09:33;22.20;99.90
23751;DHT22;12055;52.098;13.176;2022-08-06T09:12:00;22.00;99.90
23751;DHT22;12055;52.098;13.176;2022-08-06T09:14:26;21.90;99.90
23751;DHT22;12055;52.098;13.176;2022-08-06T09:16:52;22.20;99.90
23751;DHT22;12055;52.098;13.176;2022-08-06T09:19:18;22.60;99.90
23751;DHT22;12055;52.098;13.176;2022-08-06T09:21:44;22.50;99.90
23751;DHT22;12055;52.098;13.176;2022-08-06T09:24:10;22.60;99.90
23751;DHT22;12055;52.098;13.176;2022-08-06T09:26:35;22.50;99.90
23751;DHT22;12055;52.098;13.176;2022-08-06T09:29:01;22.70;99.90
23751;DHT22;12055;52.098;13.176;2022-08-06T09:31:27;22.80;99.90
23751;DHT22;12055;52.098;13.176;2022-08-06T09:34:00;22.80;99.90
23751;DHT22;12055;52.098;13.176;2022-08-06T09:36:27;22.60;99.90
23751;DHT22;12055;52.098;13.176;2022-08-06T09:38:57;22.90;99.90
23751;DHT22;12055;52.098;13.176;2022-08-06T09:41:24;22.90;99.90
23751;DHT22;12055;52.098;13.176;2022-08-06T09:43:52;23.20;99.90
23751;DHT22;12055;52.098;13.176;2022-08-06T09:46:34;22.90;99.90
23751;DHT22;12055;52.098;13.176;2022-08-06T09:49:01;22.90;99.90
23751;DHT22;12055;52.098;13.176;2022-08-06T09:51:27;23.40;99.90
23751;DHT22;12055;52.098;13.176;2022-08-06T09:53:55;24.10;99.90
23751;DHT22;12055;52.098;13.176;2022-08-06T09:56:20;24.30;99.70
23751;DHT22;12055;52.098;13.176;2022-08-06T09:58:47;24.60;99.30
23751;DHT22;12055;52.098;13.176;2022-08-06T10:01:18;23.90;98.90
23751;DHT22;12055;52.098;13.176;2022-08-06T10:03:44;23.30;99.90
23751;DHT22;12055;52.098;13.176;2022-08-06T10:06:15;22.90;99.90
23751;DHT22;12055;52.098;13.176;2022-08-06T10:08:42;23.10;99.90
23751;DHT22;12055;52.098;13.176;2022-08-06T10:11:08;22.80;99.90
23751;DHT22;12055;52.098;13.176;2022-08-06T10:13:35;22.40;99.90
23751;DHT22;12055;52.098;13.176;2022-08-06T10:16:22;22.30;99.90
23751;DHT22;12055;52.098;13.176;2022-08-06T10:18:52;22.20;99.90
23751;DHT22;12055;52.098;13.176;2022-08-06T10:21:20;22.50;99.90
23751;DHT22;12055;52.098;13.176;2022-08-06T10:23:50;23.00;99.90
23751;DHT22;12055;52.098;13.176;2022-08-06T10:26:26;23.50;99.40
23751;DHT22;12055;52.098;13.176;2022-08-06T10:28:52;23.50;99.90
23751;DHT22;12055;52.098;13.176;2022-08-06T10:31:19;23.80;98.20
23751;DHT22;12055;52.098;13.176;2022-08-06T10:33:53;24.00;98.30
23751;DHT22;12055;52.098;13.176;2022-08-06T10:36:26;24.00;99.90
23751;DHT22;12055;52.098;13.176;2022-08-06T10:38:54;23.70;96.60
23751;DHT22;12055;52.098;13.176;2022-08-06T10:41:20;24.20;97.90
23751;DHT22;12055;52.098;13.176;2022-08-06T10:43:47;24.10;97.70
23751;DHT22;12055;52.098;13.176;2022-08-06T10:46:13;23.60;99.40
23751;DHT22;12055;52.098;13.176;2022-08-06T10:48:45;23.30;99.10
23751;DHT22;12055;52.098;13.176;2022-08-06T10:51:13;23.60;99.00
23751;DHT22;12055;52.098;13.176;2022-08-06T10:53:45;23.90;96.80
23751;DHT22;12055;52.098;13.176;2022-08-06T10:56:14;24.20;96.20
23751;DHT22;12055;52.098;13.176;2022-08-06T10:58:40;24.40;95.60
23751;DHT22;12055;52.098;13.176;2022-08-06T11:01:30;24.60;96.20
23751;DHT22;12055;52.098;13.176;2022-08-06T11:07:09;25.10;96.10
23751;DHT22;12055;52.098;13.176;2022-08-06T11:12:54;24.10;95.00
23751;DHT22;12055;52.098;13.176;2022-08-06T11:15:22;24.30;96.40
23751;DHT22;12055;52.098;13.176;2022-08-06T11:17:53;25.00;95.20
23751;DHT22;12055;52.098;13.176;2022-08-06T11:22:57;25.40;97.10
23751;DHT22;12055;52.098;13.176;2022-08-06T11:25:41;25.30;95.80
23751;DHT22;12055;52.098;13.176;2022-08-06T11:28:09;25.20;94.40
23751;DHT22;12055;52.098;13.176;2022-08-06T11:30:46;24.90;95.30
23751;DHT22;12055;52.098;13.176;2022-08-06T11:33:14;25.00;94.20
23751;DHT22;12055;52.098;13.176;2022-08-06T11:35:42;25.20;95.60
23751;DHT22;12055;52.098;13.176;2022-08-06T11:38:11;25.20;93.30
23751;DHT22;12055;52.098;13.176;2022-08-06T11:40:59;24.60;93.20
23751;DHT22;12055;52.098;13.176;2022-08-06T11:46:19;23.90;95.10
23751;DHT22;12055;52.098;13.176;2022-08-06T11:54:26;24.60;93.90
23751;DHT22;12055;52.098;13.176;2022-08-06T12:01:55;25.00;93.40
23751;DHT22;12055;52.098;13.176;2022-08-06T12:12:42;23.90;93.30
23751;DHT22;12055;52.098;13.176;2022-08-06T12:20:40;24.40;93.00
23751;DHT22;12055;52.098;13.176;2022-08-06T12:23:11;24.90;93.50
23751;DHT22;12055;52.098;13.176;2022-08-06T12:25:43;24.40;90.70
23751;DHT22;12055;52.098;13.176;2022-08-06T12:28:10;24.90;91.10
23751;DHT22;12055;52.098;13.176;2022-08-06T12:30:50;25.30;92.30
23751;DHT22;12055;52.098;13.176;2022-08-06T12:33:17;25.80;91.40
23751;DHT22;12055;52.098;13.176;2022-08-06T12:35:58;26.10;91.50
23751;DHT22;12055;52.098;13.176;2022-08-06T12:38:25;25.60;90.30
23751;DHT22;12055;52.098;13.176;2022-08-06T12:40:57;24.90;92.50
23751;DHT22;12055;52.098;13.176;2022-08-06T12:43:23;24.40;90.50
23751;DHT22;12055;52.098;13.176;2022-08-06T12:45:56;23.60;91.10
23751;DHT22;12055;52.098;13.176;2022-08-06T12:48:22;23.60;91.30
23751;DHT22;12055;52.098;13.176;2022-08-06T12:50:48;24.00;91.40
23751;DHT22;12055;52.098;13.176;2022-08-06T12:53:17;24.40;90.60
23751;DHT22;12055;52.098;13.176;2022-08-06T12:55:49;24.60;92.20
23751;DHT22;12055;52.098;13.176;2022-08-06T12:58:16;25.10;90.60
23751;DHT22;12055;52.098;13.176;2022-08-06T13:00:46;25.30;91.50
23751;DHT22;12055;52.098;13.176;2022-08-06T13:03:13;25.50;91.20
23751;DHT22;12055;52.098;13.176;2022-08-06T13:05:40;25.40;89.60
23751;DHT22;12055;52.098;13.176;2022-08-06T13:08:07;24.70;90.20
23751;DHT22;12055;52.098;13.176;2022-08-06T13:10:32;24.90;90.30
23751;DHT22;12055;52.098;13.176;2022-08-06T13:13:00;25.40;90.30
23751;DHT22;12055;52.098;13.176;2022-08-06T13:15:27;26.20;88.30
23751;DHT22;12055;52.098;13.176;2022-08-06T13:18:13;26.40;84.20
23751;DHT22;12055;52.098;13.176;2022-08-06T13:20:46;27.10;87.80
23751;DHT22;12055;52.098;13.176;2022-08-06T13:23:13;27.80;87.10
23751;DHT22;12055;52.098;13.176;2022-08-06T13:25:44;27.90;84.90
23751;DHT22;12055;52.098;13.176;2022-08-06T13:28:15;28.10;81.80
23751;DHT22;12055;52.098;13.176;2022-08-06T13:30:46;28.40;83.40
23751;DHT22;12055;52.098;13.176;2022-08-06T13:33:16;28.20;80.60
23751;DHT22;12055;52.098;13.176;2022-08-06T13:35:47;28.60;81.50
23751;DHT22;12055;52.098;13.176;2022-08-06T13:38:32;29.50;78.20
23751;DHT22;12055;52.098;13.176;2022-08-06T13:40:58;28.90;80.10
23751;DHT22;12055;52.098;13.176;2022-08-06T13:43:53;27.80;79.20
23751;DHT22;12055;52.098;13.176;2022-08-06T13:46:20;28.00;81.30
23751;DHT22;12055;52.098;13.176;2022-08-06T13:48:49;28.20;80.50
23751;DHT22;12055;52.098;13.176;2022-08-06T13:51:15;28.90;78.30
23751;DHT22;12055;52.098;13.176;2022-08-06T13:53:42;28.10;75.70
23751;DHT22;12055;52.098;13.176;2022-08-06T13:56:08;29.00;77.10
23751;DHT22;12055;52.098;13.176;2022-08-06T13:58:33;29.20;76.10
23751;DHT22;12055;52.098;13.176;2022-08-06T14:00:59;28.70;73.00
23751;DHT22;12055;52.098;13.176;2022-08-06T14:03:25;27.00;72.60
23751;DHT22;12055;52.098;13.176;2022-08-06T14:05:51;26.50;76.00
23751;DHT22;12055;52.098;13.176;2022-08-06T14:08:17;27.20;83.20
23751;DHT22;12055;52.098;13.176;2022-08-06T14:10:42;28.20;74.00
23751;DHT22;12055;52.098;13.176;2022-08-06T14:13:08;29.40;74.00
23751;DHT22;12055;52.098;13.176;2022-08-06T14:15:49;30.10;72.40
23751;DHT22;12055;52.098;13.176;2022-08-06T14:18:16;29.90;73.10
23751;DHT22;12055;52.098;13.176;2022-08-06T14:20:42;29.70;72.90
23751;DHT22;12055;52.098;13.176;2022-08-06T14:23:12;30.00;71.20
23751;DHT22;12055;52.098;13.176;2022-08-06T14:25:37;30.20;71.20
23751;DHT22;12055;52.098;13.176;2022-08-06T14:28:04;30.60;72.20
23751;DHT22;12055;52.098;13.176;2022-08-06T14:30:30;30.80;72.00
23751;DHT22;12055;52.098;13.176;2022-08-06T14:32:55;30.20;71.30
23751;DHT22;12055;52.098;13.176;2022-08-06T14:35:21;29.60;67.80
23751;DHT22;12055;52.098;13.176;2022-08-06T14:37:47;30.00;70.10
23751;DHT22;12055;52.098;13.176;2022-08-06T14:40:14;30.00;67.30
23751;DHT22;12055;52.098;13.176;2022-08-06T14:42:39;29.80;68.30
23751;DHT22;12055;52.098;13.176;2022-08-06T14:45:24;30.00;68.00
23751;DHT22;12055;52.098;13.176;2022-08-06T14:47:50;29.50;69.60
23751;DHT22;12055;52.098;13.176;2022-08-06T14:50:16;29.50;66.20
23751;DHT22;12055;52.098;13.176;2022-08-06T14:52:43;29.60;66.10
23751;DHT22;12055;52.098;13.176;2022-08-06T14:55:09;30.60;67.90
23751;DHT22;12055;52.098;13.176;2022-08-06T14:57:36;30.50;66.80
23751;DHT22;12055;52.098;13.176;2022-08-06T15:00:05;30.70;66.90
23751;DHT22;12055;52.098;13.176;2022-08-06T15:02:31;29.70;65.30
23751;DHT22;12055;52.098;13.176;2022-08-06T15:04:57;30.20;66.50
23751;DHT22;12055;52.098;13.176;2022-08-06T15:07:23;31.00;69.50
23751;DHT22;12055;52.098;13.176;2022-08-06T15:09:48;32.50;66.20
23751;DHT22;12055;52.098;13.176;2022-08-06T15:12:15;31.50;69.10
23751;DHT22;12055;52.098;13.176;2022-08-06T15:14:40;31.50;66.70
23751;DHT22;12055;52.098;13.176;2022-08-06T15:17:06;30.70;67.80
23751;DHT22;12055;52.098;13.176;2022-08-06T15:19:31;30.60;68.00
23751;DHT22;12055;52.098;13.176;2022-08-06T15:21:57;30.30;66.20
23751;DHT22;12055;52.098;13.176;2022-08-06T15:24:22;29.70;66.60
23751;DHT22;12055;52.098;13.176;2022-08-06T15:26:48;29.90;67.30
23751;DHT22;12055;52.098;13.176;2022-08-06T15:29:14;30.30;64.80
23751;DHT22;12055;52.098;13.176;2022-08-06T15:31:40;30.10;63.70
23751;DHT22;12055;52.098;13.176;2022-08-06T15:34:05;29.80;64.10
23751;DHT22;12055;52.098;13.176;2022-08-06T15:36:32;29.70;64.30
23751;DHT22;12055;52.098;13.176;2022-08-06T15:38:57;29.80;65.00
23751;DHT22;12055;52.098;13.176;2022-08-06T15:41:23;29.00;64.30
23751;DHT22;12055;52.098;13.176;2022-08-06T15:43:50;29.10;64.90
23751;DHT22;12055;52.098;13.176;2022-08-06T15:46:16;27.80;65.10
23751;DHT22;12055;52.098;13.176;2022-08-06T15:48:41;28.00;66.30
23751;DHT22;12055;52.098;13.176;2022-08-06T15:51:07;28.50;67.00
23751;DHT22;12055;52.098;13.176;2022-08-06T15:53:32;29.30;66.20
23751;DHT22;12055;52.098;13.176;2022-08-06T15:55:58;28.90;63.70
23751;DHT22;12055;52.098;13.176;2022-08-06T15:58:23;28.20;68.40
23751;DHT22;12055;52.098;13.176;2022-08-06T16:00:49;29.00;66.70
23751;DHT22;12055;52.098;13.176;2022-08-06T16:03:14;28.80;63.20
23751;DHT22;12055;52.098;13.176;2022-08-06T16:05:41;28.50;64.10
23751;DHT22;12055;52.098;13.176;2022-08-06T16:08:08;28.70;64.50
23751;DHT22;12055;52.098;13.176;2022-08-06T16:10:44;28.40;63.10
23751;DHT22;12055;52.098;13.176;2022-08-06T16:13:11;29.00;61.70
23751;DHT22;12055;52.098;13.176;2022-08-06T16:15:41;29.00;63.80
23751;DHT22;12055;52.098;13.176;2022-08-06T16:18:07;28.80;63.00
23751;DHT22;12055;52.098;13.176;2022-08-06T16:20:33;28.40;63.00